Time;durP1;ratioP1;P1;durP2;ratioP2;P2;SDS_P1;SDS_P2;PMS_P1;PMS_P2;Temp;Humidity;BMP_temperature;BMP_pressure;BME280_temperature;BME280_humidity;BME280_pressure;Samples;Min_cycle;Max_cycle;Signal;HPM_P1;HPM_P2
2021/12/27 00:00:36;;;;;;;2.80;1.30;;;;;;;;;;5008669;28;20054;-77
2021/12/27 00:03:04;;;;;;;2.65;1.33;;;;;;;;;;5005078;28;20077;-77
2021/12/27 00:05:30;;;;;;;2.38;1.40;;;;;;;;;;5008177;28;20087;-78
2021/12/27 00:07:57;;;;;;;3.15;1.60;;;;;;;;;;5006458;28;20064;-77
2021/12/27 00:10:25;;;;;;;4.25;1.75;;;;;;;;;;5009835;28;20091;-77
2021/12/27 00:12:52;;;;;;;2.70;1.70;;;;;;;;;;5009192;28;20076;-77
2021/12/27 00:15:18;;;;;;;2.47;1.52;;;;;;;;;;5009745;28;20161;-78
2021/12/27 00:17:46;;;;;;;2.35;1.40;;;;;;;;;;5010983;28;20058;-78
2021/12/27 00:20:14;;;;;;;2.60;1.45;;;;;;;;;;5009531;28;20042;-78
2021/12/27 00:22:41;;;;;;;2.28;1.58;;;;;;;;;;5010277;28;20033;-77
2021/12/27 00:25:09;;;;;;;1.98;1.33;;;;;;;;;;5011394;28;20058;-76
2021/12/27 00:27:35;;;;;;;2.22;1.40;;;;;;;;;;5013848;28;20038;-78
2021/12/27 00:30:03;;;;;;;2.50;1.48;;;;;;;;;;5013372;28;20065;-76
2021/12/27 00:32:30;;;;;;;3.00;1.60;;;;;;;;;;5014135;28;20037;-79
2021/12/27 00:34:56;;;;;;;2.20;1.30;;;;;;;;;;5013036;28;20038;-78
2021/12/27 00:37:22;;;;;;;2.35;1.52;;;;;;;;;;5008123;28;20053;-79
2021/12/27 00:39:49;;;;;;;2.75;1.50;;;;;;;;;;5002711;28;20088;-78
2021/12/27 00:42:15;;;;;;;3.58;1.70;;;;;;;;;;4985571;28;20037;-77
2021/12/27 00:44:41;;;;;;;3.05;1.38;;;;;;;;;;5004546;28;20053;-76
2021/12/27 00:47:08;;;;;;;3.15;1.60;;;;;;;;;;5006116;28;20076;-77
2021/12/27 00:49:34;;;;;;;2.97;1.40;;;;;;;;;;5004034;28;20649;-78
2021/12/27 00:52:01;;;;;;;3.05;1.35;;;;;;;;;;5006193;28;20057;-77
2021/12/27 00:54:27;;;;;;;2.50;1.50;;;;;;;;;;4999653;28;20064;-77
2021/12/27 00:56:56;;;;;;;2.67;1.55;;;;;;;;;;5007184;28;20379;-77
2021/12/27 00:59:22;;;;;;;2.60;1.45;;;;;;;;;;5000706;28;20100;-77
2021/12/27 01:01:49;;;;;;;3.10;1.50;;;;;;;;;;5007670;28;20082;-76
2021/12/27 01:04:15;;;;;;;3.90;1.48;;;;;;;;;;5002993;28;20136;-76
2021/12/27 01:06:42;;;;;;;2.45;1.58;;;;;;;;;;5007341;28;20036;-78
2021/12/27 01:09:08;;;;;;;3.00;1.60;;;;;;;;;;5006055;28;20169;-76
2021/12/27 01:11:41;;;;;;;2.95;1.80;;;;;;;;;;4998978;28;20065;-79
2021/12/27 01:14:26;;;;;;;2.60;1.48;;;;;;;;;;5009464;28;20572;-78
2021/12/27 01:16:52;;;;;;;3.05;1.60;;;;;;;;;;5004745;28;20244;-77
2021/12/27 01:19:20;;;;;;;2.60;1.55;;;;;;;;;;5005055;28;20069;-78
2021/12/27 01:21:47;;;;;;;2.28;1.42;;;;;;;;;;5008606;28;20053;-76
2021/12/27 01:24:13;;;;;;;2.33;1.48;;;;;;;;;;5007060;28;20513;-78
2021/12/27 01:26:39;;;;;;;2.28;1.40;;;;;;;;;;5005087;28;20112;-77
2021/12/27 01:29:07;;;;;;;2.45;1.55;;;;;;;;;;5006594;28;20064;-77
2021/12/27 01:31:34;;;;;;;2.47;1.50;;;;;;;;;;5003717;28;20053;-76
2021/12/27 01:34:00;;;;;;;4.35;1.77;;;;;;;;;;5007622;28;20073;-76
2021/12/27 01:36:31;;;;;;;1.85;1.30;;;;;;;;;;5006690;28;20053;-78
2021/12/27 01:38:58;;;;;;;2.17;1.40;;;;;;;;;;5006713;28;20074;-77
2021/12/27 01:41:24;;;;;;;2.50;1.45;;;;;;;;;;5008429;28;20053;-77
2021/12/27 01:43:52;;;;;;;2.85;1.33;;;;;;;;;;5010573;28;20076;-78
2021/12/27 01:46:20;;;;;;;3.28;1.58;;;;;;;;;;5021104;28;20296;-78
2021/12/27 01:48:54;;;;;;;2.53;1.38;;;;;;;;;;5035296;28;20064;-77
2021/12/27 01:51:22;;;;;;;2.05;1.30;;;;;;;;;;5049324;28;20076;-77
2021/12/27 01:53:49;;;;;;;2.38;1.30;;;;;;;;;;5044519;28;20060;-75
2021/12/27 01:56:17;;;;;;;3.95;1.85;;;;;;;;;;5030138;28;20079;-76
2021/12/27 01:58:44;;;;;;;2.92;1.50;;;;;;;;;;5028819;28;20642;-76
2021/12/27 02:01:12;;;;;;;3.42;1.40;;;;;;;;;;5024333;28;20115;-77
2021/12/27 02:03:41;;;;;;;2.10;1.30;;;;;;;;;;5031061;28;20041;-77
2021/12/27 02:06:08;;;;;;;2.83;1.60;;;;;;;;;;5029812;28;20646;-76
2021/12/27 02:08:36;;;;;;;3.25;1.88;;;;;;;;;;5029189;28;20080;-78
2021/12/27 02:11:03;;;;;;;2.40;1.27;;;;;;;;;;5027199;28;20127;-78
2021/12/27 02:13:30;;;;;;;2.17;1.27;;;;;;;;;;5029297;28;20099;-79
2021/12/27 02:15:57;;;;;;;2.88;1.23;;;;;;;;;;5028945;28;20057;-78
2021/12/27 02:18:23;;;;;;;2.35;1.80;;;;;;;;;;5022488;28;20061;-76
2021/12/27 02:20:50;;;;;;;3.22;1.50;;;;;;;;;;5031258;28;20061;-77
2021/12/27 02:23:17;;;;;;;1.85;0.98;;;;;;;;;;5030462;28;20057;-76
2021/12/27 02:25:46;;;;;;;2.80;1.38;;;;;;;;;;5011723;28;21475;-77
2021/12/27 02:28:13;;;;;;;1.95;1.15;;;;;;;;;;5028484;28;20053;-77
2021/12/27 02:30:41;;;;;;;2.25;1.40;;;;;;;;;;5029059;28;20537;-77
2021/12/27 02:33:08;;;;;;;1.98;1.27;;;;;;;;;;5027625;28;20061;-77
2021/12/27 02:35:48;;;;;;;2.20;1.30;;;;;;;;;;5028852;28;20159;-77
2021/12/27 02:38:16;;;;;;;2.78;1.35;;;;;;;;;;5028195;28;20068;-76
2021/12/27 02:40:43;;;;;;;2.03;1.35;;;;;;;;;;5008390;28;20049;-77
2021/12/27 02:43:11;;;;;;;2.33;1.23;;;;;;;;;;5025770;28;20041;-77
2021/12/27 02:45:42;;;;;;;2.85;1.33;;;;;;;;;;5032297;28;20060;-76
2021/12/27 02:48:09;;;;;;;2.90;1.40;;;;;;;;;;5018127;28;20069;-78
2021/12/27 02:50:36;;;;;;;2.65;1.40;;;;;;;;;;5009748;28;20131;-76
2021/12/27 02:53:04;;;;;;;1.38;1.00;;;;;;;;;;5021808;28;20065;-78
2021/12/27 02:55:30;;;;;;;3.33;1.60;;;;;;;;;;5028288;28;20053;-78
2021/12/27 02:57:57;;;;;;;3.17;1.40;;;;;;;;;;5011865;28;20053;-78
2021/12/27 03:00:25;;;;;;;2.30;1.30;;;;;;;;;;5009498;28;20449;-77
2021/12/27 03:02:52;;;;;;;3.38;1.40;;;;;;;;;;5005783;28;20462;-78
2021/12/27 03:05:19;;;;;;;2.35;1.60;;;;;;;;;;5026757;28;20053;-77
2021/12/27 03:07:47;;;;;;;2.35;1.40;;;;;;;;;;5020223;28;20566;-76
2021/12/27 03:10:16;;;;;;;1.92;1.10;;;;;;;;;;5024807;28;20089;-77
2021/12/27 03:12:44;;;;;;;2.55;1.17;;;;;;;;;;5027945;28;20061;-77
2021/12/27 03:15:11;;;;;;;2.45;1.30;;;;;;;;;;5031762;28;20057;-78
2021/12/27 03:17:37;;;;;;;2.88;1.35;;;;;;;;;;5031909;28;20481;-78
2021/12/27 03:20:07;;;;;;;2.22;1.15;;;;;;;;;;5027778;28;20057;-76
2021/12/27 03:22:34;;;;;;;2.25;1.40;;;;;;;;;;5028433;28;20061;-77
2021/12/27 03:25:01;;;;;;;3.25;1.60;;;;;;;;;;5028279;28;20069;-76
2021/12/27 03:27:27;;;;;;;2.55;1.50;;;;;;;;;;5029626;28;20049;-77
2021/12/27 03:29:54;;;;;;;2.88;0.98;;;;;;;;;;5010371;28;20069;-78
2021/12/27 03:32:21;;;;;;;2.05;1.33;;;;;;;;;;5028471;28;20077;-76
2021/12/27 03:34:57;;;;;;;1.75;1.10;;;;;;;;;;5028848;28;20119;-77
2021/12/27 03:37:24;;;;;;;1.58;1.08;;;;;;;;;;5002922;28;20065;-77
2021/12/27 03:39:51;;;;;;;1.92;1.15;;;;;;;;;;5027069;28;20079;-77
2021/12/27 03:42:17;;;;;;;1.80;1.10;;;;;;;;;;5027850;28;20045;-76
2021/12/27 03:44:44;;;;;;;2.08;1.40;;;;;;;;;;5028064;28;20064;-77
2021/12/27 03:47:11;;;;;;;2.35;1.42;;;;;;;;;;5011231;28;20057;-77
2021/12/27 03:49:38;;;;;;;2.40;1.20;;;;;;;;;;5011750;28;20118;-77
2021/12/27 03:52:05;;;;;;;2.17;1.13;;;;;;;;;;5032348;28;20065;-77
2021/12/27 03:54:31;;;;;;;2.13;1.10;;;;;;;;;;5028413;28;20061;-77
2021/12/27 03:56:58;;;;;;;1.88;1.10;;;;;;;;;;5013050;28;20094;-77
2021/12/27 03:59:47;;;;;;;2.03;1.17;;;;;;;;;;5036160;28;20064;-77
2021/12/27 04:02:11;;;;;;;2.83;1.20;;;;;;;;;;5041102;28;20457;-77
2021/12/27 04:04:38;;;;;;;2.25;1.00;;;;;;;;;;5033265;28;20033;-76
2021/12/27 04:07:07;;;;;;;2.40;1.08;;;;;;;;;;5033924;28;20033;-76
2021/12/27 04:09:34;;;;;;;2.65;1.30;;;;;;;;;;5031247;28;20685;-76
2021/12/27 04:12:00;;;;;;;2.03;0.95;;;;;;;;;;4994842;28;20065;-78
2021/12/27 04:14:27;;;;;;;2.50;1.40;;;;;;;;;;5024841;28;20060;-77
2021/12/27 04:16:54;;;;;;;1.92;1.10;;;;;;;;;;5011593;28;20128;-77
2021/12/27 04:19:20;;;;;;;1.83;1.10;;;;;;;;;;5026861;28;20053;-77
2021/12/27 04:21:47;;;;;;;1.77;1.10;;;;;;;;;;5027648;28;20584;-77
2021/12/27 04:24:13;;;;;;;2.20;1.20;;;;;;;;;;5028041;28;20061;-77
2021/12/27 04:26:40;;;;;;;1.48;0.90;;;;;;;;;;5026582;28;20067;-77
2021/12/27 04:29:06;;;;;;;2.15;0.93;;;;;;;;;;5026690;28;20045;-78
2021/12/27 04:31:33;;;;;;;2.28;1.10;;;;;;;;;;5025623;28;20084;-77
2021/12/27 04:33:59;;;;;;;1.70;1.10;;;;;;;;;;5022006;28;21595;-76
2021/12/27 04:36:26;;;;;;;1.17;0.80;;;;;;;;;;5028839;28;20085;-77
2021/12/27 04:38:52;;;;;;;1.15;0.85;;;;;;;;;;5028793;28;20056;-77
2021/12/27 04:41:21;;;;;;;2.17;1.20;;;;;;;;;;5009487;28;20533;-76
2021/12/27 04:43:47;;;;;;;2.42;1.35;;;;;;;;;;5015472;28;21351;-76
2021/12/27 04:46:14;;;;;;;2.72;1.20;;;;;;;;;;5027209;28;20061;-77
2021/12/27 04:48:40;;;;;;;2.13;1.10;;;;;;;;;;5022582;28;20107;-77
2021/12/27 04:51:07;;;;;;;2.03;1.17;;;;;;;;;;5027658;28;20529;-76
2021/12/27 04:53:33;;;;;;;2.00;1.10;;;;;;;;;;5026262;28;20065;-76
2021/12/27 04:55:59;;;;;;;1.65;1.05;;;;;;;;;;5026784;28;20057;-77
2021/12/27 04:58:26;;;;;;;2.58;1.23;;;;;;;;;;5027482;28;20065;-78
2021/12/27 05:00:53;;;;;;;1.65;1.10;;;;;;;;;;5027667;28;20512;-78
2021/12/27 05:03:20;;;;;;;1.92;1.10;;;;;;;;;;5026174;28;20069;-78
2021/12/27 05:05:47;;;;;;;1.40;1.00;;;;;;;;;;5024417;28;20523;-76
2021/12/27 05:08:13;;;;;;;1.98;0.88;;;;;;;;;;5026142;28;20061;-77
2021/12/27 05:10:40;;;;;;;2.80;1.27;;;;;;;;;;5021134;28;20061;-77
2021/12/27 05:13:06;;;;;;;1.80;1.10;;;;;;;;;;5028570;28;20068;-77
2021/12/27 05:15:32;;;;;;;1.45;1.00;;;;;;;;;;5028757;28;20060;-78
2021/12/27 05:17:59;;;;;;;2.22;1.17;;;;;;;;;;5035569;28;20033;-78
2021/12/27 05:20:25;;;;;;;2.17;1.23;;;;;;;;;;5023798;28;20048;-77
2021/12/27 05:22:52;;;;;;;2.85;1.17;;;;;;;;;;5015742;28;20092;-77
2021/12/27 05:25:18;;;;;;;2.65;1.17;;;;;;;;;;5029053;28;20061;-77
2021/12/27 05:27:45;;;;;;;2.28;1.25;;;;;;;;;;5033720;28;20424;-77
2021/12/27 05:30:12;;;;;;;1.73;0.90;;;;;;;;;;5027543;28;20076;-77
2021/12/27 05:32:40;;;;;;;1.23;0.82;;;;;;;;;;5025838;28;20065;-77
2021/12/27 05:35:07;;;;;;;1.92;1.00;;;;;;;;;;5025223;28;20053;-78
2021/12/27 05:37:34;;;;;;;1.73;1.02;;;;;;;;;;5026107;28;20069;-77
2021/12/27 05:40:04;;;;;;;1.95;1.20;;;;;;;;;;5024758;28;20127;-77
2021/12/27 05:42:32;;;;;;;2.05;1.15;;;;;;;;;;5027067;28;20061;-77
2021/12/27 05:44:58;;;;;;;2.05;1.10;;;;;;;;;;5021932;28;20065;-78
2021/12/27 05:47:25;;;;;;;2.10;1.02;;;;;;;;;;5025633;28;20061;-77
2021/12/27 05:49:51;;;;;;;1.33;0.88;;;;;;;;;;5027788;28;20065;-78
2021/12/27 05:52:18;;;;;;;1.55;0.90;;;;;;;;;;5025688;28;20061;-76
2021/12/27 05:54:44;;;;;;;2.35;1.00;;;;;;;;;;5025092;28;20448;-77
2021/12/27 05:57:10;;;;;;;1.70;1.10;;;;;;;;;;5027741;28;20069;-77
2021/12/27 05:59:37;;;;;;;1.60;1.00;;;;;;;;;;5007698;28;20057;-77
2021/12/27 06:02:06;;;;;;;1.40;0.88;;;;;;;;;;5027154;28;20053;-77
2021/12/27 06:04:32;;;;;;;1.70;1.00;;;;;;;;;;5023230;28;20076;-77
2021/12/27 06:06:59;;;;;;;1.08;0.70;;;;;;;;;;5025478;28;20497;-76
2021/12/27 06:09:25;;;;;;;1.65;1.08;;;;;;;;;;5033633;28;20061;-78
2021/12/27 06:11:52;;;;;;;1.20;0.80;;;;;;;;;;5010684;28;20136;-77
2021/12/27 06:14:18;;;;;;;1.73;0.90;;;;;;;;;;5038481;28;20025;-77
2021/12/27 06:16:44;;;;;;;1.83;0.85;;;;;;;;;;5024638;28;21313;-76
2021/12/27 06:19:11;;;;;;;1.95;1.00;;;;;;;;;;5031009;28;20053;-75
2021/12/27 06:21:37;;;;;;;2.15;1.00;;;;;;;;;;5015612;28;20053;-77
2021/12/27 06:24:04;;;;;;;1.50;0.90;;;;;;;;;;5007665;28;20061;-78
2021/12/27 06:26:30;;;;;;;1.85;0.90;;;;;;;;;;5025017;28;20046;-77
2021/12/27 06:28:57;;;;;;;1.83;1.02;;;;;;;;;;5027895;28;20493;-77
2021/12/27 06:31:23;;;;;;;1.65;0.90;;;;;;;;;;5028259;28;20076;-76
2021/12/27 06:33:50;;;;;;;1.90;1.02;;;;;;;;;;5027202;28;20050;-77
2021/12/27 06:36:16;;;;;;;2.50;1.00;;;;;;;;;;5029729;28;20049;-77
2021/12/27 06:38:43;;;;;;;2.30;1.20;;;;;;;;;;5031103;28;20060;-76
2021/12/27 06:41:09;;;;;;;2.00;1.00;;;;;;;;;;5032200;28;20057;-77
2021/12/27 06:43:35;;;;;;;1.63;0.75;;;;;;;;;;5028202;28;20061;-76
2021/12/27 06:46:02;;;;;;;1.70;1.00;;;;;;;;;;5029467;28;20053;-77
2021/12/27 06:48:28;;;;;;;2.03;1.00;;;;;;;;;;5028413;28;20058;-76
2021/12/27 06:50:55;;;;;;;1.70;1.00;;;;;;;;;;5031963;28;20045;-77
2021/12/27 06:53:23;;;;;;;2.03;1.10;;;;;;;;;;5030037;28;20586;-77
2021/12/27 06:55:50;;;;;;;2.22;1.10;;;;;;;;;;5013014;28;20567;-77
2021/12/27 06:58:16;;;;;;;1.80;0.90;;;;;;;;;;5032041;28;20053;-77
2021/12/27 07:00:43;;;;;;;2.25;1.20;;;;;;;;;;5028777;28;20505;-77
2021/12/27 07:03:11;;;;;;;1.30;0.90;;;;;;;;;;5030098;28;20061;-76
2021/12/27 07:05:37;;;;;;;1.42;0.90;;;;;;;;;;5027105;28;20057;-77
2021/12/27 07:08:04;;;;;;;1.75;1.10;;;;;;;;;;5026843;28;20525;-77
2021/12/27 07:10:31;;;;;;;2.08;1.15;;;;;;;;;;5027929;28;20069;-78
2021/12/27 07:12:59;;;;;;;1.50;1.00;;;;;;;;;;5010690;28;20513;-77
2021/12/27 07:15:25;;;;;;;1.02;0.70;;;;;;;;;;5031697;28;20429;-77
2021/12/27 07:17:52;;;;;;;1.30;1.00;;;;;;;;;;5028094;28;20123;-76
2021/12/27 07:20:18;;;;;;;1.88;1.08;;;;;;;;;;5028192;28;20584;-77
2021/12/27 07:22:45;;;;;;;1.38;0.85;;;;;;;;;;5033067;28;20088;-77
2021/12/27 07:25:11;;;;;;;1.90;0.98;;;;;;;;;;4994835;28;20069;-77
2021/12/27 07:27:37;;;;;;;1.65;1.00;;;;;;;;;;5029114;28;20093;-77
2021/12/27 07:30:06;;;;;;;2.05;0.90;;;;;;;;;;5029856;28;20069;-76
2021/12/27 07:32:32;;;;;;;1.55;0.95;;;;;;;;;;5010240;28;20072;-77
2021/12/27 07:34:59;;;;;;;1.27;0.90;;;;;;;;;;5009709;28;20061;-77
2021/12/27 07:37:25;;;;;;;1.92;0.95;;;;;;;;;;5011522;28;20060;-77
2021/12/27 07:39:51;;;;;;;1.80;1.00;;;;;;;;;;5007213;28;20623;-76
2021/12/27 07:42:18;;;;;;;2.50;1.00;;;;;;;;;;5011174;28;20049;-78
2021/12/27 07:44:44;;;;;;;1.98;0.90;;;;;;;;;;5012544;28;20410;-76
2021/12/27 07:47:11;;;;;;;2.13;1.17;;;;;;;;;;5010782;28;20042;-78
2021/12/27 07:49:39;;;;;;;1.35;0.80;;;;;;;;;;5008698;28;20057;-77
2021/12/27 07:52:07;;;;;;;2.88;1.27;;;;;;;;;;5009703;28;20065;-77
2021/12/27 07:54:34;;;;;;;1.67;0.90;;;;;;;;;;5009627;28;20061;-77
2021/12/27 07:57:00;;;;;;;2.20;0.95;;;;;;;;;;5010987;28;20498;-76
2021/12/27 07:59:27;;;;;;;1.83;1.00;;;;;;;;;;5010447;28;20088;-77
2021/12/27 08:01:54;;;;;;;1.58;1.00;;;;;;;;;;5019181;28;20112;-78
2021/12/27 08:04:20;;;;;;;4.72;1.13;;;;;;;;;;4988172;28;20244;-78
2021/12/27 08:06:47;;;;;;;2.08;0.95;;;;;;;;;;4992667;28;20065;-78
2021/12/27 08:09:13;;;;;;;1.15;0.65;;;;;;;;;;4998087;28;20108;-78
2021/12/27 08:11:40;;;;;;;1.65;0.90;;;;;;;;;;5007694;28;21781;-78
2021/12/27 08:14:07;;;;;;;1.50;0.80;;;;;;;;;;5022785;28;20069;-78
2021/12/27 08:16:34;;;;;;;1.42;0.80;;;;;;;;;;5009000;28;20072;-77
2021/12/27 08:19:00;;;;;;;1.92;0.80;;;;;;;;;;5005230;28;20070;-78
2021/12/27 08:21:28;;;;;;;1.88;0.98;;;;;;;;;;5004608;28;21215;-78
2021/12/27 08:23:55;;;;;;;1.70;1.00;;;;;;;;;;5003368;28;20060;-77
2021/12/27 08:26:21;;;;;;;1.20;0.80;;;;;;;;;;5005775;28;20469;-77
2021/12/27 08:28:51;;;;;;;2.63;1.08;;;;;;;;;;5007322;28;20062;-77
2021/12/27 08:31:18;;;;;;;1.48;0.88;;;;;;;;;;5006981;28;20046;-76
2021/12/27 08:33:44;;;;;;;1.70;0.98;;;;;;;;;;5001700;28;20371;-78
2021/12/27 08:36:11;;;;;;;3.55;1.13;;;;;;;;;;5006488;28;20107;-77
2021/12/27 08:38:37;;;;;;;1.27;0.80;;;;;;;;;;5009222;28;20085;-77
2021/12/27 08:41:03;;;;;;;0.95;0.73;;;;;;;;;;5002821;28;20066;-78
2021/12/27 08:43:30;;;;;;;1.55;0.88;;;;;;;;;;5008755;28;20080;-77
2021/12/27 08:45:59;;;;;;;1.20;0.70;;;;;;;;;;5009713;28;20686;-77
2021/12/27 08:48:25;;;;;;;1.52;0.70;;;;;;;;;;5028734;28;20049;-76
2021/12/27 08:50:53;;;;;;;2.17;0.93;;;;;;;;;;5047120;28;20461;-77
2021/12/27 08:53:19;;;;;;;1.42;0.85;;;;;;;;;;5031818;28;20118;-77
2021/12/27 08:55:45;;;;;;;1.02;0.73;;;;;;;;;;5008338;28;21487;-78
2021/12/27 08:58:12;;;;;;;1.40;0.80;;;;;;;;;;5006549;28;20057;-77
2021/12/27 09:00:38;;;;;;;1.42;0.77;;;;;;;;;;5008403;28;20080;-76
2021/12/27 09:03:05;;;;;;;1.80;0.77;;;;;;;;;;5008614;28;20454;-78
2021/12/27 09:05:32;;;;;;;1.60;0.73;;;;;;;;;;5007530;28;20072;-77
2021/12/27 09:07:59;;;;;;;1.48;0.80;;;;;;;;;;5005177;28;20119;-78
2021/12/27 09:10:25;;;;;;;1.63;0.80;;;;;;;;;;5004119;28;20061;-77
2021/12/27 09:12:52;;;;;;;1.83;0.80;;;;;;;;;;5007337;28;20092;-78
2021/12/27 09:15:18;;;;;;;1.23;0.75;;;;;;;;;;5010831;28;20088;-76
2021/12/27 09:17:45;;;;;;;1.17;0.85;;;;;;;;;;5008750;28;20541;-79
2021/12/27 09:20:12;;;;;;;1.92;0.90;;;;;;;;;;5027575;28;20575;-78
2021/12/27 09:22:38;;;;;;;1.33;0.80;;;;;;;;;;5027458;28;20030;-78
2021/12/27 09:25:05;;;;;;;1.60;0.80;;;;;;;;;;5026191;28;20040;-78
2021/12/27 09:27:32;;;;;;;3.00;1.10;;;;;;;;;;5026541;28;20486;-78
2021/12/27 09:29:58;;;;;;;1.20;0.80;;;;;;;;;;5026769;28;20069;-76
2021/12/27 09:32:25;;;;;;;1.40;0.80;;;;;;;;;;5025814;28;20080;-78
2021/12/27 09:34:51;;;;;;;1.60;0.80;;;;;;;;;;5025781;28;20553;-78
2021/12/27 09:37:18;;;;;;;1.83;0.90;;;;;;;;;;5026347;28;20172;-77
2021/12/27 09:39:44;;;;;;;1.08;0.70;;;;;;;;;;5025294;28;20065;-78
2021/12/27 09:42:11;;;;;;;1.45;0.90;;;;;;;;;;5025890;28;20061;-77
2021/12/27 09:44:37;;;;;;;1.83;0.73;;;;;;;;;;5023605;28;20470;-77
2021/12/27 09:47:04;;;;;;;1.33;0.82;;;;;;;;;;5021882;28;20104;-77
2021/12/27 09:49:30;;;;;;;1.60;0.77;;;;;;;;;;5026318;28;20073;-77
2021/12/27 09:51:58;;;;;;;1.92;0.90;;;;;;;;;;5027400;28;20123;-79
2021/12/27 09:54:28;;;;;;;2.17;0.90;;;;;;;;;;5025624;28;20099;-78
2021/12/27 09:56:55;;;;;;;1.85;0.80;;;;;;;;;;5028469;28;20638;-79
2021/12/27 09:59:22;;;;;;;1.63;1.10;;;;;;;;;;5024581;28;20061;-77
2021/12/27 10:01:49;;;;;;;1.15;0.70;;;;;;;;;;5026091;28;20135;-77
2021/12/27 10:04:15;;;;;;;1.75;0.80;;;;;;;;;;5026846;28;20049;-76
2021/12/27 10:06:42;;;;;;;1.50;0.65;;;;;;;;;;5007754;28;20434;-78
2021/12/27 10:09:08;;;;;;;1.58;0.75;;;;;;;;;;5026658;28;20431;-78
2021/12/27 10:11:36;;;;;;;1.67;0.80;;;;;;;;;;5026522;28;20064;-77
2021/12/27 10:14:06;;;;;;;1.63;0.88;;;;;;;;;;5029887;28;20061;-78
2021/12/27 10:16:34;;;;;;;1.60;0.90;;;;;;;;;;5030454;28;20053;-78
2021/12/27 10:19:01;;;;;;;2.00;0.70;;;;;;;;;;5030043;28;20564;-77
2021/12/27 10:21:28;;;;;;;1.55;0.80;;;;;;;;;;5028662;28;20073;-78
2021/12/27 10:24:01;;;;;;;1.58;0.85;;;;;;;;;;5028406;28;20486;-77
2021/12/27 10:26:30;;;;;;;1.17;0.63;;;;;;;;;;5028456;28;20142;-78
2021/12/27 10:29:13;;;;;;;1.38;0.80;;;;;;;;;;5022390;28;20069;-78
2021/12/27 10:31:55;;;;;;;1.17;0.70;;;;;;;;;;5015147;28;20065;-78
2021/12/27 10:34:21;;;;;;;;;;;;;;;;;;5029559;28;20033;-77
2021/12/27 10:36:59;;;;;;;1.02;0.70;;;;;;;;;;5011342;28;19949;-76
2021/12/27 10:39:30;;;;;;;1.90;0.60;;;;;;;;;;5024666;28;20521;-77
2021/12/27 10:42:06;;;;;;;1.38;0.70;;;;;;;;;;5018557;28;20080;-78
2021/12/27 10:44:34;;;;;;;2.60;0.90;;;;;;;;;;5009264;28;20061;-78
2021/12/27 10:47:00;;;;;;;0.98;0.70;;;;;;;;;;5017259;28;20127;-78
2021/12/27 10:49:46;;;;;;;1.50;0.77;;;;;;;;;;5021383;28;20088;-77
2021/12/27 10:52:12;;;;;;;2.35;0.80;;;;;;;;;;5029179;28;20566;-77
2021/12/27 10:54:39;;;;;;;1.27;0.57;;;;;;;;;;5027375;28;20130;-77
2021/12/27 10:57:05;;;;;;;1.70;0.70;;;;;;;;;;5031260;28;20519;-76
2021/12/27 10:59:32;;;;;;;1.05;0.70;;;;;;;;;;5030249;28;20061;-77
2021/12/27 11:02:09;;;;;;;2.22;1.00;;;;;;;;;;5029293;28;20674;-77
2021/12/27 11:04:36;;;;;;;1.20;0.70;;;;;;;;;;5027579;28;20458;-76
2021/12/27 11:07:03;;;;;;;1.00;0.73;;;;;;;;;;5030707;28;20061;-76
2021/12/27 11:09:31;;;;;;;1.58;0.82;;;;;;;;;;5031010;28;20061;-76
2021/12/27 11:11:58;;;;;;;2.30;0.80;;;;;;;;;;5030737;28;20061;-77
2021/12/27 11:14:24;;;;;;;2.60;0.85;;;;;;;;;;5030656;28;20064;-77
2021/12/27 11:16:51;;;;;;;1.33;0.90;;;;;;;;;;5035926;28;20038;-77
2021/12/27 11:19:17;;;;;;;1.73;0.80;;;;;;;;;;5026865;28;20063;-78
2021/12/27 11:21:48;;;;;;;1.77;0.82;;;;;;;;;;5029390;28;20054;-77
2021/12/27 11:24:15;;;;;;;2.13;1.02;;;;;;;;;;5029598;28;20096;-77
2021/12/27 11:26:42;;;;;;;2.10;0.73;;;;;;;;;;5026892;28;20099;-78
2021/12/27 11:29:13;;;;;;;1.35;0.73;;;;;;;;;;5033875;28;20044;-77
2021/12/27 11:31:40;;;;;;;3.58;0.77;;;;;;;;;;5007145;28;20583;-78
2021/12/27 11:34:08;;;;;;;1.92;0.75;;;;;;;;;;5020690;28;20061;-77
2021/12/27 11:36:37;;;;;;;1.60;0.80;;;;;;;;;;5029270;28;20037;-77
2021/12/27 11:39:22;;;;;;;1.38;0.77;;;;;;;;;;5028359;28;20088;-77
2021/12/27 11:42:08;;;;;;;1.77;0.90;;;;;;;;;;5009002;28;21558;-77
2021/12/27 11:44:44;;;;;;;1.52;0.90;;;;;;;;;;5011983;28;20057;-77
2021/12/27 11:47:12;;;;;;;1.63;0.70;;;;;;;;;;5029651;28;20068;-77
2021/12/27 11:49:38;;;;;;;1.75;0.85;;;;;;;;;;5028651;28;20069;-76
2021/12/27 11:52:16;;;;;;;3.97;0.80;;;;;;;;;;5029239;28;20080;-77
2021/12/27 11:54:54;;;;;;;1.35;0.77;;;;;;;;;;5023859;28;20580;-77
2021/12/27 11:57:58;;;;;;;1.25;0.70;;;;;;;;;;5016840;28;20091;-78
2021/12/27 12:00:24;;;;;;;1.63;0.55;;;;;;;;;;4905752;29;20674;-77
2021/12/27 12:02:55;;;;;;;1.83;0.88;;;;;;;;;;5006349;28;20103;-77
2021/12/27 12:05:36;;;;;;;1.48;0.70;;;;;;;;;;5010719;28;20049;-77
2021/12/27 12:08:03;;;;;;;;;;;;;;;;;;5030278;28;20038;-79
2021/12/27 12:10:31;;;;;;;1.35;0.70;;;;;;;;;;5030287;28;20073;-76
2021/12/27 12:13:19;;;;;;;2.05;0.80;;;;;;;;;;5031368;28;20124;-77
2021/12/27 12:15:58;;;;;;;1.42;0.80;;;;;;;;;;5035602;28;20037;-77
2021/12/27 12:18:24;;;;;;;1.83;0.80;;;;;;;;;;5041595;28;20038;-77
2021/12/27 12:20:51;;;;;;;2.55;1.00;;;;;;;;;;5021596;28;20029;-77
2021/12/27 12:23:17;;;;;;;2.08;1.00;;;;;;;;;;5030130;28;20050;-79
2021/12/27 12:25:44;;;;;;;2.17;0.70;;;;;;;;;;5027413;28;20499;-76
2021/12/27 12:28:19;;;;;;;2.03;1.00;;;;;;;;;;5020116;28;20108;-77
2021/12/27 12:30:49;;;;;;;1.90;0.80;;;;;;;;;;5016696;28;20033;-76
2021/12/27 12:33:19;;;;;;;2.13;0.82;;;;;;;;;;5042964;28;20037;-78
2021/12/27 12:35:48;;;;;;;1.63;0.80;;;;;;;;;;5022777;28;20036;-81
2021/12/27 12:38:24;;;;;;;1.35;0.70;;;;;;;;;;5014058;28;20029;-77
2021/12/27 12:41:01;;;;;;;1.58;0.98;;;;;;;;;;5032579;28;20265;-76
2021/12/27 12:43:34;;;;;;;1.98;1.00;;;;;;;;;;5036432;28;20469;-77
2021/12/27 12:46:10;;;;;;;1.25;0.70;;;;;;;;;;5035303;28;20102;-78
2021/12/27 12:48:40;;;;;;;2.17;0.88;;;;;;;;;;5022810;28;20987;-76
2021/12/27 12:51:06;;;;;;;1.92;0.80;;;;;;;;;;5040446;28;20037;-76
2021/12/27 12:53:34;;;;;;;1.40;0.80;;;;;;;;;;5035753;28;20037;-75
2021/12/27 12:56:04;;;;;;;1.95;1.00;;;;;;;;;;5035993;28;20040;-77
2021/12/27 12:58:39;;;;;;;1.85;0.80;;;;;;;;;;5014966;28;20420;-77
2021/12/27 13:01:07;;;;;;;1.90;0.88;;;;;;;;;;5018268;28;20022;-78
2021/12/27 13:03:34;;;;;;;1.67;0.90;;;;;;;;;;5002480;28;20133;-77
2021/12/27 13:06:03;;;;;;;2.03;0.75;;;;;;;;;;5002529;28;20038;-78
2021/12/27 13:08:29;;;;;;;1.98;0.95;;;;;;;;;;5016901;28;20405;-78
2021/12/27 13:11:02;;;;;;;3.40;1.10;;;;;;;;;;5003368;28;20075;-79
2021/12/27 13:13:29;;;;;;;2.80;0.95;;;;;;;;;;4965208;28;20105;-78
2021/12/27 13:15:57;;;;;;;1.65;0.90;;;;;;;;;;5007104;28;20030;-80
2021/12/27 13:18:25;;;;;;;1.48;0.80;;;;;;;;;;5030439;28;20107;-76
2021/12/27 13:20:53;;;;;;;1.98;0.80;;;;;;;;;;5009206;28;20499;-78
2021/12/27 13:23:20;;;;;;;2.03;1.10;;;;;;;;;;5033992;28;20030;-76
2021/12/27 13:25:48;;;;;;;2.63;1.08;;;;;;;;;;5034279;28;20305;-76
2021/12/27 13:28:34;;;;;;;1.55;1.00;;;;;;;;;;5011862;28;20059;-76
2021/12/27 13:31:02;;;;;;;3.33;1.17;;;;;;;;;;5035845;28;20037;-76
2021/12/27 13:33:47;;;;;;;2.47;1.00;;;;;;;;;;5029418;28;20041;-77
2021/12/27 13:36:33;;;;;;;2.40;1.00;;;;;;;;;;5034630;28;20033;-79
2021/12/27 13:39:02;;;;;;;3.47;1.20;;;;;;;;;;5036492;28;20220;-77
2021/12/27 13:41:40;;;;;;;3.90;1.17;;;;;;;;;;5032063;28;20560;-78
2021/12/27 13:44:13;;;;;;;4.03;1.13;;;;;;;;;;5021982;28;20508;-76
2021/12/27 13:46:53;;;;;;;2.33;0.90;;;;;;;;;;5033513;28;20435;-76
2021/12/27 13:49:26;;;;;;;3.47;1.20;;;;;;;;;;5035751;28;20072;-78
2021/12/27 13:52:03;;;;;;;1.88;0.90;;;;;;;;;;5009911;28;21320;-77
2021/12/27 13:54:40;;;;;;;2.75;0.98;;;;;;;;;;4985589;28;20526;-76
2021/12/27 13:57:06;;;;;;;3.53;1.00;;;;;;;;;;5014708;28;20045;-77
2021/12/27 13:59:34;;;;;;;2.28;1.10;;;;;;;;;;4998703;28;20038;-76
2021/12/27 14:02:02;;;;;;;2.42;1.00;;;;;;;;;;5019245;28;20038;-76
2021/12/27 14:04:29;;;;;;;1.80;0.90;;;;;;;;;;5018072;28;20038;-77
2021/12/27 14:06:57;;;;;;;3.75;0.90;;;;;;;;;;5027564;28;20048;-77
2021/12/27 14:09:25;;;;;;;4.20;1.20;;;;;;;;;;5009399;28;20064;-76
2021/12/27 14:11:54;;;;;;;2.40;1.20;;;;;;;;;;5017414;28;20042;-76
2021/12/27 14:14:33;;;;;;;1.92;1.05;;;;;;;;;;5009442;28;20042;-77
2021/12/27 14:17:03;;;;;;;1.88;0.90;;;;;;;;;;5012897;28;21286;-77
2021/12/27 14:19:30;;;;;;;2.20;1.20;;;;;;;;;;5015787;28;20030;-77
2021/12/27 14:22:01;;;;;;;1.88;1.00;;;;;;;;;;5019722;28;20096;-77
2021/12/27 14:24:46;;;;;;;3.58;1.30;;;;;;;;;;5019218;28;20061;-77
2021/12/27 14:27:15;;;;;;;1.90;0.80;;;;;;;;;;5015474;28;20042;-78
2021/12/27 14:29:42;;;;;;;2.42;1.40;;;;;;;;;;5012825;28;20084;-77
2021/12/27 14:32:08;;;;;;;3.10;1.20;;;;;;;;;;5014244;28;20046;-77
2021/12/27 14:34:35;;;;;;;3.67;1.40;;;;;;;;;;5015050;28;20092;-76
2021/12/27 14:37:01;;;;;;;3.03;1.10;;;;;;;;;;5023318;28;20038;-77
2021/12/27 14:39:28;;;;;;;3.03;1.38;;;;;;;;;;5019799;28;20030;-77
2021/12/27 14:41:54;;;;;;;2.22;1.20;;;;;;;;;;5018128;28;20033;-78
2021/12/27 14:44:20;;;;;;;2.53;1.10;;;;;;;;;;5013128;28;20509;-77
2021/12/27 14:46:47;;;;;;;2.33;1.00;;;;;;;;;;5035097;28;20074;-78
2021/12/27 14:49:13;;;;;;;2.40;1.20;;;;;;;;;;5034303;28;20037;-76